sensor_id;sensor_type;location;lat;lon;timestamp;P1;durP1;ratioP1;P2;durP2;ratioP2
44428;SDS011;30134;47.866;-4.222;2022-11-20T00:01:13;76.03;;;49.47;;
44428;SDS011;30134;47.866;-4.222;2022-11-20T00:03:50;72.20;;;47.75;;
44428;SDS011;30134;47.866;-4.222;2022-11-20T00:06:17;71.45;;;48.28;;
44428;SDS011;30134;47.866;-4.222;2022-11-20T00:08:46;69.97;;;46.42;;
44428;SDS011;30134;47.866;-4.222;2022-11-20T00:11:15;68.32;;;45.55;;
44428;SDS011;30134;47.866;-4.222;2022-11-20T00:13:47;65.30;;;46.25;;
44428;SDS011;30134;47.866;-4.222;2022-11-20T00:16:17;69.75;;;45.75;;
44428;SDS011;30134;47.866;-4.222;2022-11-20T00:18:46;68.05;;;44.60;;
44428;SDS011;30134;47.866;-4.222;2022-11-20T00:21:15;66.45;;;44.13;;
44428;SDS011;30134;47.866;-4.222;2022-11-20T00:23:44;63.22;;;43.15;;
44428;SDS011;30134;47.866;-4.222;2022-11-20T00:26:11;62.50;;;42.88;;
44428;SDS011;30134;47.866;-4.222;2022-11-20T00:28:40;61.72;;;42.35;;
44428;SDS011;30134;47.866;-4.222;2022-11-20T00:31:12;61.47;;;41.13;;
44428;SDS011;30134;47.866;-4.222;2022-11-20T00:33:40;59.08;;;39.83;;
44428;SDS011;30134;47.866;-4.222;2022-11-20T00:36:08;59.20;;;41.30;;
44428;SDS011;30134;47.866;-4.222;2022-11-20T00:38:38;55.97;;;37.70;;
44428;SDS011;30134;47.866;-4.222;2022-11-20T00:41:06;53.75;;;37.47;;
44428;SDS011;30134;47.866;-4.222;2022-11-20T00:43:34;55.80;;;37.47;;
44428;SDS011;30134;47.866;-4.222;2022-11-20T00:46:02;56.95;;;37.33;;
44428;SDS011;30134;47.866;-4.222;2022-11-20T00:48:34;53.47;;;36.13;;
44428;SDS011;30134;47.866;-4.222;2022-11-20T00:51:00;53.78;;;36.38;;
44428;SDS011;30134;47.866;-4.222;2022-11-20T00:53:26;48.97;;;34.67;;
44428;SDS011;30134;47.866;-4.222;2022-11-20T00:56:03;52.00;;;34.20;;
44428;SDS011;30134;47.866;-4.222;2022-11-20T00:58:37;50.55;;;34.80;;
44428;SDS011;30134;47.866;-4.222;2022-11-20T01:01:12;49.00;;;33.22;;
44428;SDS011;30134;47.866;-4.222;2022-11-20T01:03:42;47.28;;;33.55;;
44428;SDS011;30134;47.866;-4.222;2022-11-20T01:06:14;45.35;;;32.25;;
44428;SDS011;30134;47.866;-4.222;2022-11-20T01:08:45;48.55;;;33.15;;
44428;SDS011;30134;47.866;-4.222;2022-11-20T01:11:22;46.20;;;32.25;;
44428;SDS011;30134;47.866;-4.222;2022-11-20T01:13:53;46.80;;;32.33;;
44428;SDS011;30134;47.866;-4.222;2022-11-20T01:16:21;43.80;;;30.15;;
44428;SDS011;30134;47.866;-4.222;2022-11-20T01:19:03;48.00;;;30.67;;
44428;SDS011;30134;47.866;-4.222;2022-11-20T01:21:32;40.85;;;28.70;;
44428;SDS011;30134;47.866;-4.222;2022-11-20T01:24:00;41.42;;;28.95;;
44428;SDS011;30134;47.866;-4.222;2022-11-20T01:26:32;44.00;;;28.70;;
44428;SDS011;30134;47.866;-4.222;2022-11-20T01:29:01;39.80;;;27.15;;
44428;SDS011;30134;47.866;-4.222;2022-11-20T01:31:31;37.70;;;26.88;;
44428;SDS011;30134;47.866;-4.222;2022-11-20T01:34:04;40.17;;;27.50;;
44428;SDS011;30134;47.866;-4.222;2022-11-20T01:36:37;38.97;;;26.63;;
44428;SDS011;30134;47.866;-4.222;2022-11-20T01:39:09;37.05;;;24.75;;
44428;SDS011;30134;47.866;-4.222;2022-11-20T01:41:42;35.55;;;25.42;;
44428;SDS011;30134;47.866;-4.222;2022-11-20T01:47:37;35.67;;;25.40;;
44428;SDS011;30134;47.866;-4.222;2022-11-20T01:50:11;35.13;;;23.13;;
44428;SDS011;30134;47.866;-4.222;2022-11-20T01:52:55;33.63;;;23.80;;
44428;SDS011;30134;47.866;-4.222;2022-11-20T01:55:36;33.45;;;23.33;;
44428;SDS011;30134;47.866;-4.222;2022-11-20T01:58:10;33.28;;;23.02;;
44428;SDS011;30134;47.866;-4.222;2022-11-20T02:00:40;33.22;;;22.75;;
44428;SDS011;30134;47.866;-4.222;2022-11-20T02:03:09;31.45;;;21.80;;
44428;SDS011;30134;47.866;-4.222;2022-11-20T02:05:49;32.03;;;22.33;;
44428;SDS011;30134;47.866;-4.222;2022-11-20T02:08:36;31.40;;;21.02;;
44428;SDS011;30134;47.866;-4.222;2022-11-20T02:11:03;28.17;;;20.70;;
44428;SDS011;30134;47.866;-4.222;2022-11-20T02:13:29;32.65;;;22.38;;
44428;SDS011;30134;47.866;-4.222;2022-11-20T02:16:30;30.15;;;20.83;;
44428;SDS011;30134;47.866;-4.222;2022-11-20T02:19:01;28.73;;;19.83;;
44428;SDS011;30134;47.866;-4.222;2022-11-20T02:24:39;25.20;;;18.50;;
44428;SDS011;30134;47.866;-4.222;2022-11-20T02:27:08;27.77;;;19.73;;
44428;SDS011;30134;47.866;-4.222;2022-11-20T02:29:51;25.85;;;18.10;;
44428;SDS011;30134;47.866;-4.222;2022-11-20T02:32:26;23.15;;;17.02;;
44428;SDS011;30134;47.866;-4.222;2022-11-20T02:34:56;23.92;;;17.20;;
44428;SDS011;30134;47.866;-4.222;2022-11-20T02:37:23;24.05;;;16.48;;
44428;SDS011;30134;47.866;-4.222;2022-11-20T02:39:59;24.33;;;16.40;;
44428;SDS011;30134;47.866;-4.222;2022-11-20T02:42:25;24.10;;;16.60;;
44428;SDS011;30134;47.866;-4.222;2022-11-20T02:44:50;22.88;;;16.25;;
44428;SDS011;30134;47.866;-4.222;2022-11-20T02:47:19;23.75;;;16.60;;
44428;SDS011;30134;47.866;-4.222;2022-11-20T02:49:45;23.85;;;16.20;;
44428;SDS011;30134;47.866;-4.222;2022-11-20T02:52:11;23.48;;;15.63;;
44428;SDS011;30134;47.866;-4.222;2022-11-20T02:54:37;23.90;;;15.60;;
44428;SDS011;30134;47.866;-4.222;2022-11-20T02:57:03;22.20;;;15.27;;
44428;SDS011;30134;47.866;-4.222;2022-11-20T02:59:29;18.95;;;14.02;;
44428;SDS011;30134;47.866;-4.222;2022-11-20T03:01:55;18.45;;;13.85;;
44428;SDS011;30134;47.866;-4.222;2022-11-20T03:04:20;18.63;;;13.85;;
44428;SDS011;30134;47.866;-4.222;2022-11-20T03:06:46;19.23;;;13.95;;
44428;SDS011;30134;47.866;-4.222;2022-11-20T03:09:12;19.02;;;13.60;;
44428;SDS011;30134;47.866;-4.222;2022-11-20T03:11:38;19.58;;;13.70;;
44428;SDS011;30134;47.866;-4.222;2022-11-20T03:14:04;19.40;;;13.23;;
44428;SDS011;30134;47.866;-4.222;2022-11-20T03:16:31;20.25;;;13.02;;
44428;SDS011;30134;47.866;-4.222;2022-11-20T03:18:57;18.80;;;13.68;;
44428;SDS011;30134;47.866;-4.222;2022-11-20T03:21:23;19.00;;;12.55;;
44428;SDS011;30134;47.866;-4.222;2022-11-20T03:23:49;18.60;;;13.00;;
44428;SDS011;30134;47.866;-4.222;2022-11-20T03:26:18;15.90;;;11.60;;
44428;SDS011;30134;47.866;-4.222;2022-11-20T03:29:08;16.73;;;12.15;;
44428;SDS011;30134;47.866;-4.222;2022-11-20T03:31:36;16.58;;;11.85;;
44428;SDS011;30134;47.866;-4.222;2022-11-20T03:34:10;16.67;;;11.52;;
44428;SDS011;30134;47.866;-4.222;2022-11-20T03:36:40;17.15;;;11.57;;
44428;SDS011;30134;47.866;-4.222;2022-11-20T03:39:07;15.15;;;10.35;;
44428;SDS011;30134;47.866;-4.222;2022-11-20T03:41:37;14.23;;;10.63;;
44428;SDS011;30134;47.866;-4.222;2022-11-20T03:44:10;13.90;;;10.05;;
44428;SDS011;30134;47.866;-4.222;2022-11-20T03:46:37;15.70;;;10.38;;
44428;SDS011;30134;47.866;-4.222;2022-11-20T03:49:06;14.23;;;9.93;;
44428;SDS011;30134;47.866;-4.222;2022-11-20T03:51:32;15.40;;;10.98;;
44428;SDS011;30134;47.866;-4.222;2022-11-20T03:54:02;13.98;;;10.35;;
44428;SDS011;30134;47.866;-4.222;2022-11-20T03:56:31;13.48;;;10.30;;
44428;SDS011;30134;47.866;-4.222;2022-11-20T03:59:01;13.80;;;9.68;;
44428;SDS011;30134;47.866;-4.222;2022-11-20T04:01:29;14.60;;;9.93;;
44428;SDS011;30134;47.866;-4.222;2022-11-20T04:03:58;15.45;;;10.93;;
44428;SDS011;30134;47.866;-4.222;2022-11-20T04:06:26;14.75;;;9.77;;
44428;SDS011;30134;47.866;-4.222;2022-11-20T04:08:55;13.50;;;9.20;;
44428;SDS011;30134;47.866;-4.222;2022-11-20T04:11:23;12.25;;;8.75;;
44428;SDS011;30134;47.866;-4.222;2022-11-20T04:13:55;11.98;;;8.95;;
44428;SDS011;30134;47.866;-4.222;2022-11-20T04:16:24;13.35;;;9.15;;
44428;SDS011;30134;47.866;-4.222;2022-11-20T04:18:51;13.30;;;9.18;;
44428;SDS011;30134;47.866;-4.222;2022-11-20T04:21:19;12.27;;;8.45;;
44428;SDS011;30134;47.866;-4.222;2022-11-20T04:23:45;12.38;;;8.65;;
44428;SDS011;30134;47.866;-4.222;2022-11-20T04:26:11;12.60;;;8.45;;
44428;SDS011;30134;47.866;-4.222;2022-11-20T04:28:37;12.00;;;8.73;;
44428;SDS011;30134;47.866;-4.222;2022-11-20T04:31:04;10.73;;;7.70;;
44428;SDS011;30134;47.866;-4.222;2022-11-20T04:33:33;11.68;;;7.90;;
44428;SDS011;30134;47.866;-4.222;2022-11-20T04:36:06;11.90;;;8.38;;
44428;SDS011;30134;47.866;-4.222;2022-11-20T04:38:40;11.18;;;7.43;;
44428;SDS011;30134;47.866;-4.222;2022-11-20T04:41:07;10.32;;;7.22;;
44428;SDS011;30134;47.866;-4.222;2022-11-20T04:43:47;11.88;;;7.95;;
44428;SDS011;30134;47.866;-4.222;2022-11-20T04:46:15;9.15;;;7.40;;
44428;SDS011;30134;47.866;-4.222;2022-11-20T04:48:42;10.98;;;7.88;;
44428;SDS011;30134;47.866;-4.222;2022-11-20T04:51:08;10.82;;;7.10;;
44428;SDS011;30134;47.866;-4.222;2022-11-20T04:53:34;9.25;;;6.60;;
44428;SDS011;30134;47.866;-4.222;2022-11-20T04:56:01;11.35;;;7.57;;
44428;SDS011;30134;47.866;-4.222;2022-11-20T04:58:29;10.30;;;6.93;;
44428;SDS011;30134;47.866;-4.222;2022-11-20T05:01:28;9.70;;;6.82;;
44428;SDS011;30134;47.866;-4.222;2022-11-20T05:03:48;10.20;;;6.65;;
44428;SDS011;30134;47.866;-4.222;2022-11-20T05:06:15;12.35;;;6.90;;
44428;SDS011;30134;47.866;-4.222;2022-11-20T05:08:44;10.50;;;6.88;;
44428;SDS011;30134;47.866;-4.222;2022-11-20T05:11:11;8.77;;;6.18;;
44428;SDS011;30134;47.866;-4.222;2022-11-20T05:13:40;9.32;;;6.97;;
44428;SDS011;30134;47.866;-4.222;2022-11-20T05:16:39;8.70;;;6.07;;
44428;SDS011;30134;47.866;-4.222;2022-11-20T05:18:59;9.43;;;5.72;;
44428;SDS011;30134;47.866;-4.222;2022-11-20T05:21:25;8.63;;;5.95;;
44428;SDS011;30134;47.866;-4.222;2022-11-20T05:23:51;7.70;;;5.20;;
44428;SDS011;30134;47.866;-4.222;2022-11-20T05:26:18;8.20;;;5.60;;
44428;SDS011;30134;47.866;-4.222;2022-11-20T05:28:47;8.15;;;5.35;;
44428;SDS011;30134;47.866;-4.222;2022-11-20T05:31:15;8.50;;;6.00;;
44428;SDS011;30134;47.866;-4.222;2022-11-20T05:33:44;8.10;;;5.82;;
44428;SDS011;30134;47.866;-4.222;2022-11-20T05:36:11;7.97;;;5.60;;
44428;SDS011;30134;47.866;-4.222;2022-11-20T05:38:39;8.05;;;5.22;;
44428;SDS011;30134;47.866;-4.222;2022-11-20T05:41:16;7.78;;;5.35;;
44428;SDS011;30134;47.866;-4.222;2022-11-20T05:43:45;7.22;;;4.82;;
44428;SDS011;30134;47.866;-4.222;2022-11-20T05:46:13;7.63;;;5.50;;
44428;SDS011;30134;47.866;-4.222;2022-11-20T05:48:43;6.75;;;4.85;;
44428;SDS011;30134;47.866;-4.222;2022-11-20T05:51:11;6.93;;;4.75;;
44428;SDS011;30134;47.866;-4.222;2022-11-20T05:53:40;6.93;;;4.55;;
44428;SDS011;30134;47.866;-4.222;2022-11-20T05:56:09;5.57;;;4.47;;
44428;SDS011;30134;47.866;-4.222;2022-11-20T05:58:38;6.88;;;4.85;;
44428;SDS011;30134;47.866;-4.222;2022-11-20T06:01:05;7.68;;;4.68;;
44428;SDS011;30134;47.866;-4.222;2022-11-20T06:03:44;7.32;;;4.93;;
44428;SDS011;30134;47.866;-4.222;2022-11-20T06:06:12;7.20;;;4.63;;
44428;SDS011;30134;47.866;-4.222;2022-11-20T06:08:41;5.68;;;4.20;;
44428;SDS011;30134;47.866;-4.222;2022-11-20T06:11:08;6.45;;;4.50;;
44428;SDS011;30134;47.866;-4.222;2022-11-20T06:13:37;7.97;;;4.38;;
44428;SDS011;30134;47.866;-4.222;2022-11-20T06:16:03;6.18;;;4.20;;
44428;SDS011;30134;47.866;-4.222;2022-11-20T06:18:30;7.80;;;4.70;;
44428;SDS011;30134;47.866;-4.222;2022-11-20T06:21:02;5.95;;;4.20;;
44428;SDS011;30134;47.866;-4.222;2022-11-20T06:23:37;6.63;;;4.15;;
44428;SDS011;30134;47.866;-4.222;2022-11-20T06:26:07;6.45;;;4.30;;
44428;SDS011;30134;47.866;-4.222;2022-11-20T06:28:36;5.40;;;3.95;;
44428;SDS011;30134;47.866;-4.222;2022-11-20T06:31:02;5.78;;;4.03;;
44428;SDS011;30134;47.866;-4.222;2022-11-20T06:33:29;5.75;;;4.05;;
44428;SDS011;30134;47.866;-4.222;2022-11-20T06:35:56;6.07;;;4.00;;
44428;SDS011;30134;47.866;-4.222;2022-11-20T06:38:24;4.90;;;3.55;;
44428;SDS011;30134;47.866;-4.222;2022-11-20T06:40:52;6.47;;;3.67;;
44428;SDS011;30134;47.866;-4.222;2022-11-20T06:43:18;5.93;;;3.78;;
44428;SDS011;30134;47.866;-4.222;2022-11-20T06:45:45;6.28;;;3.92;;
44428;SDS011;30134;47.866;-4.222;2022-11-20T06:48:19;5.18;;;3.40;;
44428;SDS011;30134;47.866;-4.222;2022-11-20T06:50:45;6.53;;;3.95;;
44428;SDS011;30134;47.866;-4.222;2022-11-20T06:53:11;5.32;;;3.47;;
44428;SDS011;30134;47.866;-4.222;2022-11-20T06:55:41;4.75;;;3.45;;
44428;SDS011;30134;47.866;-4.222;2022-11-20T06:58:09;4.63;;;3.28;;
44428;SDS011;30134;47.866;-4.222;2022-11-20T07:00:35;6.78;;;3.75;;
44428;SDS011;30134;47.866;-4.222;2022-11-20T07:03:08;5.53;;;3.78;;
44428;SDS011;30134;47.866;-4.222;2022-11-20T07:05:36;5.88;;;3.70;;
44428;SDS011;30134;47.866;-4.222;2022-11-20T07:08:03;5.35;;;3.10;;
44428;SDS011;30134;47.866;-4.222;2022-11-20T07:10:30;6.03;;;3.60;;
44428;SDS011;30134;47.866;-4.222;2022-11-20T07:12:57;4.45;;;3.10;;
44428;SDS011;30134;47.866;-4.222;2022-11-20T07:15:23;4.40;;;3.20;;
44428;SDS011;30134;47.866;-4.222;2022-11-20T07:17:50;4.88;;;3.50;;
44428;SDS011;30134;47.866;-4.222;2022-11-20T07:20:17;4.13;;;2.95;;
44428;SDS011;30134;47.866;-4.222;2022-11-20T07:22:43;4.35;;;2.95;;
44428;SDS011;30134;47.866;-4.222;2022-11-20T07:25:10;4.95;;;3.30;;
44428;SDS011;30134;47.866;-4.222;2022-11-20T07:27:36;4.57;;;2.90;;
44428;SDS011;30134;47.866;-4.222;2022-11-20T07:30:03;4.57;;;3.00;;
44428;SDS011;30134;47.866;-4.222;2022-11-20T07:32:29;4.47;;;3.10;;
44428;SDS011;30134;47.866;-4.222;2022-11-20T07:34:56;5.65;;;2.90;;
44428;SDS011;30134;47.866;-4.222;2022-11-20T07:37:21;4.90;;;2.85;;
44428;SDS011;30134;47.866;-4.222;2022-11-20T07:39:47;4.05;;;2.92;;
44428;SDS011;30134;47.866;-4.222;2022-11-20T07:42:13;4.45;;;3.03;;
44428;SDS011;30134;47.866;-4.222;2022-11-20T07:44:39;3.35;;;2.42;;
44428;SDS011;30134;47.866;-4.222;2022-11-20T07:47:05;3.53;;;2.70;;
44428;SDS011;30134;47.866;-4.222;2022-11-20T07:49:31;4.32;;;2.97;;
44428;SDS011;30134;47.866;-4.222;2022-11-20T07:51:57;5.43;;;2.90;;
44428;SDS011;30134;47.866;-4.222;2022-11-20T07:54:22;4.53;;;2.63;;
44428;SDS011;30134;47.866;-4.222;2022-11-20T07:56:49;4.50;;;2.35;;
44428;SDS011;30134;47.866;-4.222;2022-11-20T07:59:15;4.00;;;2.90;;
44428;SDS011;30134;47.866;-4.222;2022-11-20T08:01:41;3.45;;;2.53;;
44428;SDS011;30134;47.866;-4.222;2022-11-20T08:04:08;4.25;;;2.60;;
44428;SDS011;30134;47.866;-4.222;2022-11-20T08:06:35;3.83;;;2.40;;
44428;SDS011;30134;47.866;-4.222;2022-11-20T08:09:01;4.93;;;3.00;;
44428;SDS011;30134;47.866;-4.222;2022-11-20T08:11:28;4.68;;;2.88;;
44428;SDS011;30134;47.866;-4.222;2022-11-20T08:14:12;3.47;;;2.58;;
44428;SDS011;30134;47.866;-4.222;2022-11-20T08:16:42;3.78;;;2.45;;
44428;SDS011;30134;47.866;-4.222;2022-11-20T08:19:13;4.32;;;2.78;;
44428;SDS011;30134;47.866;-4.222;2022-11-20T08:21:41;3.90;;;2.47;;
44428;SDS011;30134;47.866;-4.222;2022-11-20T08:24:08;4.10;;;2.67;;
44428;SDS011;30134;47.866;-4.222;2022-11-20T08:26:35;3.55;;;2.63;;
44428;SDS011;30134;47.866;-4.222;2022-11-20T08:29:02;3.30;;;2.42;;
44428;SDS011;30134;47.866;-4.222;2022-11-20T08:31:29;4.50;;;2.67;;
44428;SDS011;30134;47.866;-4.222;2022-11-20T08:33:56;3.63;;;2.50;;
44428;SDS011;30134;47.866;-4.222;2022-11-20T08:36:23;4.50;;;2.65;;
44428;SDS011;30134;47.866;-4.222;2022-11-20T08:38:53;3.33;;;2.20;;
44428;SDS011;30134;47.866;-4.222;2022-11-20T08:41:21;4.57;;;2.55;;
44428;SDS011;30134;47.866;-4.222;2022-11-20T08:43:59;3.85;;;2.58;;
44428;SDS011;30134;47.866;-4.222;2022-11-20T08:46:31;3.85;;;2.38;;
44428;SDS011;30134;47.866;-4.222;2022-11-20T08:49:05;5.95;;;2.72;;
44428;SDS011;30134;47.866;-4.222;2022-11-20T08:51:32;5.68;;;2.47;;
44428;SDS011;30134;47.866;-4.222;2022-11-20T08:53:59;3.88;;;2.40;;
44428;SDS011;30134;47.866;-4.222;2022-11-20T08:56:25;2.70;;;2.08;;
44428;SDS011;30134;47.866;-4.222;2022-11-20T08:58:51;3.03;;;2.30;;
44428;SDS011;30134;47.866;-4.222;2022-11-20T09:01:17;3.38;;;2.10;;
44428;SDS011;30134;47.866;-4.222;2022-11-20T09:03:45;4.75;;;2.35;;
44428;SDS011;30134;47.866;-4.222;2022-11-20T09:06:11;4.05;;;2.50;;
44428;SDS011;30134;47.866;-4.222;2022-11-20T09:08:37;4.82;;;2.70;;
44428;SDS011;30134;47.866;-4.222;2022-11-20T09:11:03;4.13;;;2.40;;
44428;SDS011;30134;47.866;-4.222;2022-11-20T09:13:30;4.43;;;2.50;;
44428;SDS011;30134;47.866;-4.222;2022-11-20T09:16:01;3.42;;;2.15;;
44428;SDS011;30134;47.866;-4.222;2022-11-20T09:18:31;6.00;;;2.58;;
44428;SDS011;30134;47.866;-4.222;2022-11-20T09:21:01;3.85;;;2.05;;
44428;SDS011;30134;47.866;-4.222;2022-11-20T09:23:31;4.90;;;2.50;;
44428;SDS011;30134;47.866;-4.222;2022-11-20T09:26:05;5.38;;;2.72;;
44428;SDS011;30134;47.866;-4.222;2022-11-20T09:28:36;7.00;;;3.30;;
44428;SDS011;30134;47.866;-4.222;2022-11-20T09:31:06;4.43;;;2.50;;
44428;SDS011;30134;47.866;-4.222;2022-11-20T09:34:01;4.28;;;2.53;;
44428;SDS011;30134;47.866;-4.222;2022-11-20T09:36:27;3.60;;;2.40;;
44428;SDS011;30134;47.866;-4.222;2022-11-20T09:38:53;3.92;;;2.33;;
44428;SDS011;30134;47.866;-4.222;2022-11-20T09:44:27;4.90;;;2.58;;
44428;SDS011;30134;47.866;-4.222;2022-11-20T09:56:27;5.95;;;2.80;;
44428;SDS011;30134;47.866;-4.222;2022-11-20T09:58:54;4.07;;;2.55;;
44428;SDS011;30134;47.866;-4.222;2022-11-20T10:01:29;4.80;;;2.60;;
44428;SDS011;30134;47.866;-4.222;2022-11-20T10:06:37;4.28;;;2.45;;
44428;SDS011;30134;47.866;-4.222;2022-11-20T10:09:33;5.88;;;3.20;;
44428;SDS011;30134;47.866;-4.222;2022-11-20T10:18:06;5.63;;;2.72;;
44428;SDS011;30134;47.866;-4.222;2022-11-20T10:26:43;5.50;;;2.22;;
44428;SDS011;30134;47.866;-4.222;2022-11-20T10:32:38;5.10;;;2.60;;
44428;SDS011;30134;47.866;-4.222;2022-11-20T10:35:21;8.70;;;2.92;;
44428;SDS011;30134;47.866;-4.222;2022-11-20T10:37:58;6.22;;;2.60;;
44428;SDS011;30134;47.866;-4.222;2022-11-20T10:40:49;6.57;;;2.67;;
44428;SDS011;30134;47.866;-4.222;2022-11-20T10:43:40;6.07;;;2.72;;
44428;SDS011;30134;47.866;-4.222;2022-11-20T10:46:10;5.10;;;2.47;;
44428;SDS011;30134;47.866;-4.222;2022-11-20T10:48:45;5.15;;;2.42;;
44428;SDS011;30134;47.866;-4.222;2022-11-20T10:51:27;6.72;;;2.67;;
44428;SDS011;30134;47.866;-4.222;2022-11-20T10:56:46;6.00;;;2.85;;
44428;SDS011;30134;47.866;-4.222;2022-11-20T11:01:43;6.60;;;2.97;;
44428;SDS011;30134;47.866;-4.222;2022-11-20T11:04:28;6.43;;;2.85;;
44428;SDS011;30134;47.866;-4.222;2022-11-20T11:10:16;6.10;;;2.85;;
44428;SDS011;30134;47.866;-4.222;2022-11-20T11:12:47;4.72;;;2.50;;
44428;SDS011;30134;47.866;-4.222;2022-11-20T11:15:14;8.10;;;2.63;;
44428;SDS011;30134;47.866;-4.222;2022-11-20T11:17:53;4.35;;;2.28;;
44428;SDS011;30134;47.866;-4.222;2022-11-20T11:20:21;5.10;;;2.53;;
44428;SDS011;30134;47.866;-4.222;2022-11-20T11:22:58;6.45;;;2.60;;
44428;SDS011;30134;47.866;-4.222;2022-11-20T11:25:32;9.05;;;3.55;;
44428;SDS011;30134;47.866;-4.222;2022-11-20T11:28:02;12.38;;;3.67;;
44428;SDS011;30134;47.866;-4.222;2022-11-20T11:30:44;12.50;;;3.90;;
44428;SDS011;30134;47.866;-4.222;2022-11-20T11:33:17;8.35;;;3.03;;
44428;SDS011;30134;47.866;-4.222;2022-11-20T11:35:47;10.60;;;3.20;;
44428;SDS011;30134;47.866;-4.222;2022-11-20T11:38:29;9.82;;;3.53;;
44428;SDS011;30134;47.866;-4.222;2022-11-20T11:41:01;11.27;;;3.35;;
44428;SDS011;30134;47.866;-4.222;2022-11-20T11:43:31;12.05;;;3.55;;
44428;SDS011;30134;47.866;-4.222;2022-11-20T11:49:39;9.88;;;3.40;;
44428;SDS011;30134;47.866;-4.222;2022-11-20T11:56:55;8.70;;;3.33;;
44428;SDS011;30134;47.866;-4.222;2022-11-20T11:59:28;9.32;;;4.10;;
44428;SDS011;30134;47.866;-4.222;2022-11-20T12:08:23;9.48;;;4.00;;
44428;SDS011;30134;47.866;-4.222;2022-11-20T12:11:05;9.68;;;3.85;;
44428;SDS011;30134;47.866;-4.222;2022-11-20T12:16:23;11.77;;;3.92;;
44428;SDS011;30134;47.866;-4.222;2022-11-20T12:18:50;11.00;;;4.05;;
44428;SDS011;30134;47.866;-4.222;2022-11-20T12:38:45;9.32;;;3.80;;
44428;SDS011;30134;47.866;-4.222;2022-11-20T12:53:27;7.75;;;3.75;;
44428;SDS011;30134;47.866;-4.222;2022-11-20T13:01:47;8.20;;;3.05;;
44428;SDS011;30134;47.866;-4.222;2022-11-20T13:07:30;8.25;;;3.40;;
44428;SDS011;30134;47.866;-4.222;2022-11-20T13:09:57;8.73;;;3.30;;
44428;SDS011;30134;47.866;-4.222;2022-11-20T13:12:44;5.85;;;2.83;;
44428;SDS011;30134;47.866;-4.222;2022-11-20T13:15:31;7.63;;;2.95;;
44428;SDS011;30134;47.866;-4.222;2022-11-20T13:18:25;9.75;;;2.78;;
44428;SDS011;30134;47.866;-4.222;2022-11-20T13:20:52;7.03;;;2.90;;
44428;SDS011;30134;47.866;-4.222;2022-11-20T13:23:25;7.18;;;3.30;;
44428;SDS011;30134;47.866;-4.222;2022-11-20T13:26:05;8.02;;;3.10;;
44428;SDS011;30134;47.866;-4.222;2022-11-20T13:31:24;6.93;;;2.88;;
44428;SDS011;30134;47.866;-4.222;2022-11-20T13:33:58;7.63;;;3.20;;
44428;SDS011;30134;47.866;-4.222;2022-11-20T13:36:31;7.07;;;3.05;;
44428;SDS011;30134;47.866;-4.222;2022-11-20T13:39:00;5.65;;;2.58;;
44428;SDS011;30134;47.866;-4.222;2022-11-20T13:44:10;10.20;;;3.33;;
44428;SDS011;30134;47.866;-4.222;2022-11-20T13:46:48;8.82;;;3.35;;
44428;SDS011;30134;47.866;-4.222;2022-11-20T13:49:25;9.77;;;3.63;;
44428;SDS011;30134;47.866;-4.222;2022-11-20T14:01:10;42.58;;;23.15;;
44428;SDS011;30134;47.866;-4.222;2022-11-20T14:03:41;39.15;;;23.58;;
44428;SDS011;30134;47.866;-4.222;2022-11-20T14:06:26;32.75;;;21.23;;
44428;SDS011;30134;47.866;-4.222;2022-11-20T14:08:57;32.53;;;21.25;;
44428;SDS011;30134;47.866;-4.222;2022-11-20T14:11:25;36.67;;;20.48;;
44428;SDS011;30134;47.866;-4.222;2022-11-20T14:13:55;35.47;;;20.88;;
44428;SDS011;30134;47.866;-4.222;2022-11-20T14:16:23;33.15;;;21.33;;
44428;SDS011;30134;47.866;-4.222;2022-11-20T14:18:52;38.38;;;22.83;;
44428;SDS011;30134;47.866;-4.222;2022-11-20T14:21:27;34.40;;;22.00;;
44428;SDS011;30134;47.866;-4.222;2022-11-20T14:24:06;34.83;;;23.23;;
44428;SDS011;30134;47.866;-4.222;2022-11-20T14:26:38;38.28;;;25.00;;
44428;SDS011;30134;47.866;-4.222;2022-11-20T14:29:13;41.70;;;26.08;;
44428;SDS011;30134;47.866;-4.222;2022-11-20T14:31:45;41.70;;;27.80;;
44428;SDS011;30134;47.866;-4.222;2022-11-20T14:34:23;43.53;;;28.17;;
44428;SDS011;30134;47.866;-4.222;2022-11-20T14:36:53;45.28;;;29.10;;
44428;SDS011;30134;47.866;-4.222;2022-11-20T14:39:34;48.90;;;31.65;;
44428;SDS011;30134;47.866;-4.222;2022-11-20T14:42:03;47.97;;;31.55;;
44428;SDS011;30134;47.866;-4.222;2022-11-20T14:44:48;50.88;;;33.47;;
44428;SDS011;30134;47.866;-4.222;2022-11-20T14:47:21;47.65;;;31.80;;
44428;SDS011;30134;47.866;-4.222;2022-11-20T14:49:58;53.28;;;35.25;;
44428;SDS011;30134;47.866;-4.222;2022-11-20T14:52:26;51.97;;;33.67;;
44428;SDS011;30134;47.866;-4.222;2022-11-20T14:54:57;48.05;;;32.80;;
44428;SDS011;30134;47.866;-4.222;2022-11-20T15:00:17;53.65;;;35.72;;
44428;SDS011;30134;47.866;-4.222;2022-11-20T15:02:47;50.72;;;34.58;;
44428;SDS011;30134;47.866;-4.222;2022-11-20T15:05:15;50.38;;;34.30;;
44428;SDS011;30134;47.866;-4.222;2022-11-20T15:07:47;51.45;;;34.28;;
44428;SDS011;30134;47.866;-4.222;2022-11-20T15:12:58;51.28;;;34.17;;
44428;SDS011;30134;47.866;-4.222;2022-11-20T15:15:47;48.40;;;33.20;;
44428;SDS011;30134;47.866;-4.222;2022-11-20T15:18:37;47.47;;;33.90;;
44428;SDS011;30134;47.866;-4.222;2022-11-20T15:21:13;47.60;;;32.38;;
44428;SDS011;30134;47.866;-4.222;2022-11-20T15:23:41;48.15;;;32.20;;
44428;SDS011;30134;47.866;-4.222;2022-11-20T15:26:08;47.42;;;31.33;;
44428;SDS011;30134;47.866;-4.222;2022-11-20T15:28:40;46.75;;;31.80;;
44428;SDS011;30134;47.866;-4.222;2022-11-20T15:33:39;45.17;;;30.17;;
44428;SDS011;30134;47.866;-4.222;2022-11-20T15:36:10;43.45;;;29.52;;
44428;SDS011;30134;47.866;-4.222;2022-11-20T15:38:36;41.45;;;28.02;;
44428;SDS011;30134;47.866;-4.222;2022-11-20T15:41:02;45.47;;;29.77;;
44428;SDS011;30134;47.866;-4.222;2022-11-20T15:43:28;41.55;;;26.40;;
44428;SDS011;30134;47.866;-4.222;2022-11-20T15:46:00;37.60;;;24.23;;
44428;SDS011;30134;47.866;-4.222;2022-11-20T15:48:35;38.60;;;24.23;;
44428;SDS011;30134;47.866;-4.222;2022-11-20T15:56:04;35.58;;;22.80;;
44428;SDS011;30134;47.866;-4.222;2022-11-20T15:58:30;30.42;;;20.25;;
44428;SDS011;30134;47.866;-4.222;2022-11-20T16:00:56;32.72;;;20.38;;
44428;SDS011;30134;47.866;-4.222;2022-11-20T16:03:24;32.53;;;20.50;;
44428;SDS011;30134;47.866;-4.222;2022-11-20T16:05:50;30.38;;;20.13;;
44428;SDS011;30134;47.866;-4.222;2022-11-20T16:08:18;29.85;;;18.33;;
44428;SDS011;30134;47.866;-4.222;2022-11-20T16:10:44;25.98;;;18.02;;
44428;SDS011;30134;47.866;-4.222;2022-11-20T16:13:13;28.77;;;18.88;;
44428;SDS011;30134;47.866;-4.222;2022-11-20T16:16:04;27.45;;;17.83;;
44428;SDS011;30134;47.866;-4.222;2022-11-20T16:18:36;25.42;;;16.90;;
44428;SDS011;30134;47.866;-4.222;2022-11-20T16:21:02;24.23;;;16.45;;
44428;SDS011;30134;47.866;-4.222;2022-11-20T16:23:30;23.02;;;15.07;;
44428;SDS011;30134;47.866;-4.222;2022-11-20T16:25:58;22.73;;;15.75;;
44428;SDS011;30134;47.866;-4.222;2022-11-20T16:28:23;23.08;;;15.77;;
44428;SDS011;30134;47.866;-4.222;2022-11-20T16:30:52;23.15;;;15.52;;
44428;SDS011;30134;47.866;-4.222;2022-11-20T16:33:17;23.45;;;14.95;;
44428;SDS011;30134;47.866;-4.222;2022-11-20T16:35:43;23.48;;;14.43;;
44428;SDS011;30134;47.866;-4.222;2022-11-20T16:38:10;21.48;;;13.95;;
44428;SDS011;30134;47.866;-4.222;2022-11-20T16:40:36;21.23;;;13.90;;
44428;SDS011;30134;47.866;-4.222;2022-11-20T16:43:06;25.63;;;14.45;;
44428;SDS011;30134;47.866;-4.222;2022-11-20T16:45:44;20.65;;;13.60;;
44428;SDS011;30134;47.866;-4.222;2022-11-20T16:48:14;23.85;;;13.45;;
44428;SDS011;30134;47.866;-4.222;2022-11-20T16:50:51;19.00;;;12.43;;